Aeroporto :
LOGIN :

Iscrizione | Disclaimer

   EN    FR    IT 

 










Sommario :    VFR   VFR Marginale   IFR   IFR Intensivo   IFR Molto Intensivo
Visibilità : 
Base nubi : 
>= 8 km
>= 3000ft
5 / 8 km
1000 / 3000 ft
1500m / 5 km
500 / 1000 ft
800 / 1500m
200 / 500 ft
< 800m
< 200 ft
Simboli :   Temporali  Nebbia  Neve Forte  Precipitazioni Forti  Vento > 20 kt
SIGMETs :   Varie  Temporali  Ghiacco  Turbolenza  Onda orograficha  Ceneri Vulcaniche






- Altitudine del aeroporto : 34 ft
- Codice IATA : BLK


EGNH - Blackpool

ULTIMO METAR :
  • 221220Z 14013KT 9999 FEW015 BKN019 08/06 Q0994 WS RWY10

METARs OBSOLETI :
  • 221150Z 14012KT 9999 BKN019 08/07 Q0994 WS RWY10
  • 221120Z 14010KT 9999 BKN019 08/06 Q0994 WS RWY10
  • 221050Z 11007KT 9999 BKN014 08/07 Q0994 WS RWY10
  • 221020Z 11008KT 9999 BKN012 07/06 Q0994 WS RWY10
  • 220950Z 10009KT 9999 BKN013 07/06 Q0994

TAF TAF EGNH
Valido dal 22 a 12 ore il 22 a 21 ore UTC


221054Z 2212/2221 11010KT 9999 SCT012
TEMPO 2212/2215 9000 BKN012
TEMPO 2215/2221 6000 RA BKN014
ATIS : +44 1253 343 434 (x8315)



MetMap, La meteo Aeronautica in un colpo d'occhio ! - Copyright ORBIFLY Dicembre 2007 - Disclaimer

ORBIFLY MET'MAP TEAM :

Programmazione e sviluppo : Alexandra Zaïnal
Concezione e sviluppo : Baudouin d'Aumeries
Co-Programmazione e sviluppo : Marc-Olivier Méhu
Supporto tecnico e logistico : Manuel Goepfert
Aiuto per la traduzione : Arnaldo La Scala

Contatto : metmap@orbifly.com




FONTI E CREDITI :

   NOAA